sensor_id;sensor_type;location;lat;lon;timestamp;P1;durP1;ratioP1;P2;durP2;ratioP2
55417;SDS011;41287;47.554;7.844;2023-04-03T00:01:15;1.70;;;0.65;;
55417;SDS011;41287;47.554;7.844;2023-04-03T00:03:41;4.00;;;0.80;;
55417;SDS011;41287;47.554;7.844;2023-04-03T00:06:07;1.00;;;0.40;;
55417;SDS011;41287;47.554;7.844;2023-04-03T00:08:34;4.97;;;0.85;;
55417;SDS011;41287;47.554;7.844;2023-04-03T00:10:59;3.75;;;0.60;;
55417;SDS011;41287;47.554;7.844;2023-04-03T00:13:26;2.55;;;0.70;;
55417;SDS011;41287;47.554;7.844;2023-04-03T00:15:51;1.25;;;0.70;;
55417;SDS011;41287;47.554;7.844;2023-04-03T00:18:17;4.50;;;1.10;;
55417;SDS011;41287;47.554;7.844;2023-04-03T00:20:42;3.65;;;0.70;;
55417;SDS011;41287;47.554;7.844;2023-04-03T00:23:08;3.78;;;0.70;;
55417;SDS011;41287;47.554;7.844;2023-04-03T00:25:33;3.17;;;0.95;;
55417;SDS011;41287;47.554;7.844;2023-04-03T00:27:59;2.38;;;0.82;;
55417;SDS011;41287;47.554;7.844;2023-04-03T00:30:24;3.53;;;0.70;;
55417;SDS011;41287;47.554;7.844;2023-04-03T00:32:50;1.83;;;0.70;;
55417;SDS011;41287;47.554;7.844;2023-04-03T00:35:18;2.25;;;0.70;;
55417;SDS011;41287;47.554;7.844;2023-04-03T00:37:45;3.30;;;0.80;;
55417;SDS011;41287;47.554;7.844;2023-04-03T00:40:11;3.85;;;0.80;;
55417;SDS011;41287;47.554;7.844;2023-04-03T00:42:38;1.20;;;0.50;;
55417;SDS011;41287;47.554;7.844;2023-04-03T00:47:30;3.30;;;0.80;;
55417;SDS011;41287;47.554;7.844;2023-04-03T00:49:56;1.17;;;0.50;;
55417;SDS011;41287;47.554;7.844;2023-04-03T00:52:23;3.15;;;0.80;;
55417;SDS011;41287;47.554;7.844;2023-04-03T00:54:53;4.03;;;0.77;;
55417;SDS011;41287;47.554;7.844;2023-04-03T00:57:23;2.42;;;0.50;;
55417;SDS011;41287;47.554;7.844;2023-04-03T00:59:50;4.95;;;0.80;;
55417;SDS011;41287;47.554;7.844;2023-04-03T01:02:23;3.13;;;0.60;;
55417;SDS011;41287;47.554;7.844;2023-04-03T01:04:48;0.80;;;0.43;;
55417;SDS011;41287;47.554;7.844;2023-04-03T01:07:24;2.15;;;0.75;;
55417;SDS011;41287;47.554;7.844;2023-04-03T01:09:56;4.00;;;0.75;;
55417;SDS011;41287;47.554;7.844;2023-04-03T01:12:24;3.40;;;0.80;;
55417;SDS011;41287;47.554;7.844;2023-04-03T01:14:59;2.40;;;0.57;;
55417;SDS011;41287;47.554;7.844;2023-04-03T01:25:45;2.00;;;0.70;;
55417;SDS011;41287;47.554;7.844;2023-04-03T01:31:11;3.10;;;0.80;;
55417;SDS011;41287;47.554;7.844;2023-04-03T01:33:40;2.92;;;0.80;;
55417;SDS011;41287;47.554;7.844;2023-04-03T01:36:06;4.30;;;0.77;;
55417;SDS011;41287;47.554;7.844;2023-04-03T01:38:32;5.65;;;0.90;;
55417;SDS011;41287;47.554;7.844;2023-04-03T01:40:58;3.05;;;0.90;;
55417;SDS011;41287;47.554;7.844;2023-04-03T01:43:23;1.77;;;0.57;;
55417;SDS011;41287;47.554;7.844;2023-04-03T01:45:49;1.40;;;0.50;;
55417;SDS011;41287;47.554;7.844;2023-04-03T01:48:15;3.08;;;0.60;;
55417;SDS011;41287;47.554;7.844;2023-04-03T01:50:41;1.52;;;0.52;;
55417;SDS011;41287;47.554;7.844;2023-04-03T01:53:06;3.67;;;0.90;;
55417;SDS011;41287;47.554;7.844;2023-04-03T01:55:35;3.03;;;0.82;;
55417;SDS011;41287;47.554;7.844;2023-04-03T01:58:00;2.65;;;0.60;;
55417;SDS011;41287;47.554;7.844;2023-04-03T02:00:26;2.10;;;0.60;;
55417;SDS011;41287;47.554;7.844;2023-04-03T02:02:55;2.28;;;0.57;;
55417;SDS011;41287;47.554;7.844;2023-04-03T02:05:21;3.67;;;0.90;;
55417;SDS011;41287;47.554;7.844;2023-04-03T02:07:47;1.70;;;0.70;;
55417;SDS011;41287;47.554;7.844;2023-04-03T02:10:12;1.77;;;0.60;;
55417;SDS011;41287;47.554;7.844;2023-04-03T02:12:37;2.70;;;0.70;;
55417;SDS011;41287;47.554;7.844;2023-04-03T02:15:03;1.38;;;0.50;;
55417;SDS011;41287;47.554;7.844;2023-04-03T02:17:29;3.72;;;0.80;;
55417;SDS011;41287;47.554;7.844;2023-04-03T02:19:54;1.85;;;0.70;;
55417;SDS011;41287;47.554;7.844;2023-04-03T02:22:20;1.98;;;0.50;;
55417;SDS011;41287;47.554;7.844;2023-04-03T02:24:45;4.25;;;0.90;;
55417;SDS011;41287;47.554;7.844;2023-04-03T02:27:11;1.95;;;0.70;;
55417;SDS011;41287;47.554;7.844;2023-04-03T02:29:36;0.52;;;0.35;;
55417;SDS011;41287;47.554;7.844;2023-04-03T02:32:01;2.25;;;0.60;;
55417;SDS011;41287;47.554;7.844;2023-04-03T02:34:27;2.00;;;0.52;;
55417;SDS011;41287;47.554;7.844;2023-04-03T02:36:52;1.58;;;0.52;;
55417;SDS011;41287;47.554;7.844;2023-04-03T02:39:18;1.67;;;0.63;;
55417;SDS011;41287;47.554;7.844;2023-04-03T02:41:43;1.30;;;0.50;;
55417;SDS011;41287;47.554;7.844;2023-04-03T02:44:09;1.60;;;0.65;;
55417;SDS011;41287;47.554;7.844;2023-04-03T02:46:35;2.00;;;0.90;;
55417;SDS011;41287;47.554;7.844;2023-04-03T02:49:01;2.33;;;0.60;;
55417;SDS011;41287;47.554;7.844;2023-04-03T02:51:26;3.00;;;0.77;;
55417;SDS011;41287;47.554;7.844;2023-04-03T02:53:52;2.10;;;0.50;;
55417;SDS011;41287;47.554;7.844;2023-04-03T02:56:17;2.63;;;0.65;;
55417;SDS011;41287;47.554;7.844;2023-04-03T02:58:44;6.00;;;0.73;;
55417;SDS011;41287;47.554;7.844;2023-04-03T03:01:10;1.25;;;0.50;;
55417;SDS011;41287;47.554;7.844;2023-04-03T03:03:35;1.15;;;0.52;;
55417;SDS011;41287;47.554;7.844;2023-04-03T03:06:04;1.35;;;0.50;;
55417;SDS011;41287;47.554;7.844;2023-04-03T03:08:36;3.33;;;0.80;;
55417;SDS011;41287;47.554;7.844;2023-04-03T03:11:02;3.25;;;0.70;;
55417;SDS011;41287;47.554;7.844;2023-04-03T03:13:28;1.30;;;0.50;;
55417;SDS011;41287;47.554;7.844;2023-04-03T03:15:54;2.45;;;0.93;;
55417;SDS011;41287;47.554;7.844;2023-04-03T03:18:23;3.38;;;0.60;;
55417;SDS011;41287;47.554;7.844;2023-04-03T03:20:53;1.90;;;0.47;;
55417;SDS011;41287;47.554;7.844;2023-04-03T03:23:19;1.75;;;0.60;;
55417;SDS011;41287;47.554;7.844;2023-04-03T03:25:46;1.73;;;0.50;;
55417;SDS011;41287;47.554;7.844;2023-04-03T03:28:12;0.63;;;0.40;;
55417;SDS011;41287;47.554;7.844;2023-04-03T03:30:37;0.85;;;0.55;;
55417;SDS011;41287;47.554;7.844;2023-04-03T03:33:03;1.15;;;0.50;;
55417;SDS011;41287;47.554;7.844;2023-04-03T03:35:28;1.58;;;0.63;;
55417;SDS011;41287;47.554;7.844;2023-04-03T03:37:54;1.83;;;0.60;;
55417;SDS011;41287;47.554;7.844;2023-04-03T03:40:19;1.08;;;0.60;;
55417;SDS011;41287;47.554;7.844;2023-04-03T03:42:47;1.05;;;0.50;;
55417;SDS011;41287;47.554;7.844;2023-04-03T03:45:12;2.88;;;0.60;;
55417;SDS011;41287;47.554;7.844;2023-04-03T03:47:37;3.45;;;1.00;;
55417;SDS011;41287;47.554;7.844;2023-04-03T03:50:03;2.40;;;0.57;;
55417;SDS011;41287;47.554;7.844;2023-04-03T03:52:29;3.63;;;0.75;;
55417;SDS011;41287;47.554;7.844;2023-04-03T03:54:55;3.28;;;0.60;;
55417;SDS011;41287;47.554;7.844;2023-04-03T03:57:20;2.28;;;0.60;;
55417;SDS011;41287;47.554;7.844;2023-04-03T03:59:46;2.33;;;0.50;;
55417;SDS011;41287;47.554;7.844;2023-04-03T04:02:12;1.80;;;0.65;;
55417;SDS011;41287;47.554;7.844;2023-04-03T04:04:37;1.65;;;0.60;;
55417;SDS011;41287;47.554;7.844;2023-04-03T04:07:03;2.33;;;0.65;;
55417;SDS011;41287;47.554;7.844;2023-04-03T04:09:28;1.48;;;0.50;;
55417;SDS011;41287;47.554;7.844;2023-04-03T04:11:54;3.30;;;0.60;;
55417;SDS011;41287;47.554;7.844;2023-04-03T04:14:21;1.35;;;0.60;;
55417;SDS011;41287;47.554;7.844;2023-04-03T04:16:47;2.65;;;0.52;;
55417;SDS011;41287;47.554;7.844;2023-04-03T04:19:12;2.00;;;0.60;;
55417;SDS011;41287;47.554;7.844;2023-04-03T04:21:38;1.67;;;0.70;;
55417;SDS011;41287;47.554;7.844;2023-04-03T04:24:10;2.13;;;0.50;;
55417;SDS011;41287;47.554;7.844;2023-04-03T04:26:39;0.35;;;0.30;;
55417;SDS011;41287;47.554;7.844;2023-04-03T04:29:05;1.25;;;0.30;;
55417;SDS011;41287;47.554;7.844;2023-04-03T04:31:30;0.50;;;0.40;;
55417;SDS011;41287;47.554;7.844;2023-04-03T04:33:55;0.90;;;0.43;;
55417;SDS011;41287;47.554;7.844;2023-04-03T04:36:21;0.98;;;0.63;;
55417;SDS011;41287;47.554;7.844;2023-04-03T04:38:46;0.43;;;0.30;;
55417;SDS011;41287;47.554;7.844;2023-04-03T04:41:11;0.30;;;0.30;;
55417;SDS011;41287;47.554;7.844;2023-04-03T04:43:37;1.20;;;0.57;;
55417;SDS011;41287;47.554;7.844;2023-04-03T04:46:03;0.30;;;0.30;;
55417;SDS011;41287;47.554;7.844;2023-04-03T04:48:30;0.40;;;0.30;;
55417;SDS011;41287;47.554;7.844;2023-04-03T04:51:00;0.35;;;0.30;;
55417;SDS011;41287;47.554;7.844;2023-04-03T04:53:25;0.80;;;0.40;;
55417;SDS011;41287;47.554;7.844;2023-04-03T04:55:51;7.45;;;0.50;;
55417;SDS011;41287;47.554;7.844;2023-04-03T04:58:17;1.95;;;0.40;;
55417;SDS011;41287;47.554;7.844;2023-04-03T05:00:47;0.25;;;0.25;;
55417;SDS011;41287;47.554;7.844;2023-04-03T05:03:12;0.85;;;0.40;;
55417;SDS011;41287;47.554;7.844;2023-04-03T05:05:38;2.38;;;0.40;;
55417;SDS011;41287;47.554;7.844;2023-04-03T05:08:03;0.93;;;0.50;;
55417;SDS011;41287;47.554;7.844;2023-04-03T05:10:31;0.98;;;0.43;;
55417;SDS011;41287;47.554;7.844;2023-04-03T05:12:57;1.63;;;0.30;;
55417;SDS011;41287;47.554;7.844;2023-04-03T05:15:23;1.48;;;0.40;;
55417;SDS011;41287;47.554;7.844;2023-04-03T05:17:48;0.95;;;0.50;;
55417;SDS011;41287;47.554;7.844;2023-04-03T05:20:14;1.02;;;0.63;;
55417;SDS011;41287;47.554;7.844;2023-04-03T05:22:39;0.70;;;0.43;;
55417;SDS011;41287;47.554;7.844;2023-04-03T05:25:05;1.75;;;0.60;;
55417;SDS011;41287;47.554;7.844;2023-04-03T05:27:31;0.73;;;0.50;;
55417;SDS011;41287;47.554;7.844;2023-04-03T05:29:56;1.27;;;0.70;;
55417;SDS011;41287;47.554;7.844;2023-04-03T05:32:23;0.82;;;0.50;;
55417;SDS011;41287;47.554;7.844;2023-04-03T05:34:50;1.30;;;0.52;;
55417;SDS011;41287;47.554;7.844;2023-04-03T05:37:15;1.08;;;0.68;;
55417;SDS011;41287;47.554;7.844;2023-04-03T05:39:41;0.90;;;0.50;;
55417;SDS011;41287;47.554;7.844;2023-04-03T05:42:06;2.35;;;0.60;;
55417;SDS011;41287;47.554;7.844;2023-04-03T05:44:32;1.55;;;0.70;;
55417;SDS011;41287;47.554;7.844;2023-04-03T05:46:58;0.68;;;0.60;;
55417;SDS011;41287;47.554;7.844;2023-04-03T05:49:23;1.65;;;0.55;;
55417;SDS011;41287;47.554;7.844;2023-04-03T05:51:49;1.58;;;0.70;;
55417;SDS011;41287;47.554;7.844;2023-04-03T05:54:20;2.72;;;0.82;;
55417;SDS011;41287;47.554;7.844;2023-04-03T05:56:53;1.38;;;0.68;;
55417;SDS011;41287;47.554;7.844;2023-04-03T05:59:18;1.15;;;0.70;;
55417;SDS011;41287;47.554;7.844;2023-04-03T06:01:45;0.98;;;0.57;;
55417;SDS011;41287;47.554;7.844;2023-04-03T06:04:11;3.08;;;0.85;;
55417;SDS011;41287;47.554;7.844;2023-04-03T06:09:10;1.73;;;0.63;;
55417;SDS011;41287;47.554;7.844;2023-04-03T06:11:35;1.48;;;0.70;;
55417;SDS011;41287;47.554;7.844;2023-04-03T06:14:01;1.10;;;0.60;;
55417;SDS011;41287;47.554;7.844;2023-04-03T06:16:26;1.10;;;0.50;;
55417;SDS011;41287;47.554;7.844;2023-04-03T06:18:51;2.72;;;0.70;;
55417;SDS011;41287;47.554;7.844;2023-04-03T06:21:17;1.85;;;0.70;;
55417;SDS011;41287;47.554;7.844;2023-04-03T06:23:42;1.90;;;0.60;;
55417;SDS011;41287;47.554;7.844;2023-04-03T06:26:07;2.10;;;0.80;;
55417;SDS011;41287;47.554;7.844;2023-04-03T06:28:33;1.55;;;0.55;;
55417;SDS011;41287;47.554;7.844;2023-04-03T06:30:58;2.63;;;0.73;;
55417;SDS011;41287;47.554;7.844;2023-04-03T06:33:23;2.55;;;0.40;;
55417;SDS011;41287;47.554;7.844;2023-04-03T06:35:56;2.35;;;0.70;;
55417;SDS011;41287;47.554;7.844;2023-04-03T06:38:23;2.15;;;0.75;;
55417;SDS011;41287;47.554;7.844;2023-04-03T06:40:48;1.88;;;0.70;;
55417;SDS011;41287;47.554;7.844;2023-04-03T06:43:13;1.10;;;0.60;;
55417;SDS011;41287;47.554;7.844;2023-04-03T06:45:39;1.35;;;0.70;;
55417;SDS011;41287;47.554;7.844;2023-04-03T06:48:04;0.70;;;0.60;;
55417;SDS011;41287;47.554;7.844;2023-04-03T06:50:30;2.08;;;0.70;;
55417;SDS011;41287;47.554;7.844;2023-04-03T06:52:57;1.30;;;0.70;;
55417;SDS011;41287;47.554;7.844;2023-04-03T06:55:23;4.45;;;0.70;;
55417;SDS011;41287;47.554;7.844;2023-04-03T06:57:48;2.88;;;0.90;;
55417;SDS011;41287;47.554;7.844;2023-04-03T07:00:14;2.53;;;0.98;;
55417;SDS011;41287;47.554;7.844;2023-04-03T07:02:41;2.50;;;0.60;;
55417;SDS011;41287;47.554;7.844;2023-04-03T07:05:07;2.75;;;0.68;;
55417;SDS011;41287;47.554;7.844;2023-04-03T07:07:32;1.08;;;0.60;;
55417;SDS011;41287;47.554;7.844;2023-04-03T07:09:59;1.98;;;0.90;;
55417;SDS011;41287;47.554;7.844;2023-04-03T07:12:24;2.25;;;0.80;;
55417;SDS011;41287;47.554;7.844;2023-04-03T07:14:50;1.17;;;0.77;;
55417;SDS011;41287;47.554;7.844;2023-04-03T07:17:19;1.17;;;0.60;;
55417;SDS011;41287;47.554;7.844;2023-04-03T07:19:45;1.90;;;0.80;;
55417;SDS011;41287;47.554;7.844;2023-04-03T07:22:10;1.05;;;0.80;;
55417;SDS011;41287;47.554;7.844;2023-04-03T07:24:36;2.97;;;0.70;;
55417;SDS011;41287;47.554;7.844;2023-04-03T07:27:02;0.95;;;0.70;;
55417;SDS011;41287;47.554;7.844;2023-04-03T07:29:27;1.23;;;0.80;;
55417;SDS011;41287;47.554;7.844;2023-04-03T07:31:59;1.25;;;0.77;;
55417;SDS011;41287;47.554;7.844;2023-04-03T07:34:25;1.45;;;0.80;;
55417;SDS011;41287;47.554;7.844;2023-04-03T07:36:50;3.67;;;0.95;;
55417;SDS011;41287;47.554;7.844;2023-04-03T07:39:16;3.67;;;0.90;;
55417;SDS011;41287;47.554;7.844;2023-04-03T07:41:43;3.95;;;0.90;;
55417;SDS011;41287;47.554;7.844;2023-04-03T07:44:09;0.80;;;0.70;;
55417;SDS011;41287;47.554;7.844;2023-04-03T07:46:35;1.77;;;0.70;;
55417;SDS011;41287;47.554;7.844;2023-04-03T07:49:01;1.60;;;0.98;;
55417;SDS011;41287;47.554;7.844;2023-04-03T07:51:29;1.85;;;0.60;;
55417;SDS011;41287;47.554;7.844;2023-04-03T07:53:55;1.75;;;0.95;;
55417;SDS011;41287;47.554;7.844;2023-04-03T07:56:20;2.55;;;0.77;;
55417;SDS011;41287;47.554;7.844;2023-04-03T07:58:46;4.63;;;0.98;;
55417;SDS011;41287;47.554;7.844;2023-04-03T08:01:12;2.50;;;0.85;;
55417;SDS011;41287;47.554;7.844;2023-04-03T08:03:39;1.60;;;0.95;;
55417;SDS011;41287;47.554;7.844;2023-04-03T08:06:06;2.05;;;1.08;;
55417;SDS011;41287;47.554;7.844;2023-04-03T08:08:32;2.67;;;1.15;;
55417;SDS011;41287;47.554;7.844;2023-04-03T08:10:59;2.63;;;1.13;;
55417;SDS011;41287;47.554;7.844;2023-04-03T08:13:26;1.73;;;1.02;;
55417;SDS011;41287;47.554;7.844;2023-04-03T08:15:52;2.63;;;1.00;;
55417;SDS011;41287;47.554;7.844;2023-04-03T08:18:18;5.03;;;1.35;;
55417;SDS011;41287;47.554;7.844;2023-04-03T08:20:46;3.30;;;1.02;;
55417;SDS011;41287;47.554;7.844;2023-04-03T08:23:11;2.03;;;0.90;;
55417;SDS011;41287;47.554;7.844;2023-04-03T08:25:38;2.25;;;1.23;;
55417;SDS011;41287;47.554;7.844;2023-04-03T08:28:04;1.45;;;0.90;;
55417;SDS011;41287;47.554;7.844;2023-04-03T08:30:30;3.53;;;1.65;;
55417;SDS011;41287;47.554;7.844;2023-04-03T08:32:55;3.28;;;1.10;;
55417;SDS011;41287;47.554;7.844;2023-04-03T08:35:21;1.48;;;0.98;;
55417;SDS011;41287;47.554;7.844;2023-04-03T08:37:46;1.70;;;1.00;;
55417;SDS011;41287;47.554;7.844;2023-04-03T08:40:16;3.05;;;1.10;;
55417;SDS011;41287;47.554;7.844;2023-04-03T08:48:20;2.15;;;1.20;;
55417;SDS011;41287;47.554;7.844;2023-04-03T08:50:50;2.55;;;1.13;;
55417;SDS011;41287;47.554;7.844;2023-04-03T08:53:22;1.67;;;1.00;;
55417;SDS011;41287;47.554;7.844;2023-04-03T08:55:53;4.32;;;1.33;;
55417;SDS011;41287;47.554;7.844;2023-04-03T08:58:24;4.47;;;1.42;;
55417;SDS011;41287;47.554;7.844;2023-04-03T09:01:03;3.08;;;1.10;;
55417;SDS011;41287;47.554;7.844;2023-04-03T09:03:34;1.98;;;1.15;;
55417;SDS011;41287;47.554;7.844;2023-04-03T09:06:04;1.48;;;1.13;;
55417;SDS011;41287;47.554;7.844;2023-04-03T09:08:35;3.53;;;1.10;;
55417;SDS011;41287;47.554;7.844;2023-04-03T09:16:54;1.90;;;1.00;;
55417;SDS011;41287;47.554;7.844;2023-04-03T09:21:59;4.85;;;1.10;;
55417;SDS011;41287;47.554;7.844;2023-04-03T09:24:44;5.43;;;1.30;;
55417;SDS011;41287;47.554;7.844;2023-04-03T09:27:12;4.20;;;1.40;;
55417;SDS011;41287;47.554;7.844;2023-04-03T09:29:39;2.95;;;1.05;;
55417;SDS011;41287;47.554;7.844;2023-04-03T09:35:10;3.58;;;1.35;;
55417;SDS011;41287;47.554;7.844;2023-04-03T09:37:44;2.83;;;1.27;;
55417;SDS011;41287;47.554;7.844;2023-04-03T09:42:50;4.30;;;1.20;;
55417;SDS011;41287;47.554;7.844;2023-04-03T09:45:24;3.38;;;1.17;;
55417;SDS011;41287;47.554;7.844;2023-04-03T09:47:52;4.38;;;1.40;;
55417;SDS011;41287;47.554;7.844;2023-04-03T09:50:53;4.97;;;1.40;;
55417;SDS011;41287;47.554;7.844;2023-04-03T09:53:36;4.75;;;1.20;;
55417;SDS011;41287;47.554;7.844;2023-04-03T09:56:18;2.58;;;1.25;;
55417;SDS011;41287;47.554;7.844;2023-04-03T09:59:12;4.28;;;1.15;;
55417;SDS011;41287;47.554;7.844;2023-04-03T10:01:41;1.77;;;0.93;;
55417;SDS011;41287;47.554;7.844;2023-04-03T10:06:41;2.83;;;1.15;;
55417;SDS011;41287;47.554;7.844;2023-04-03T10:09:24;3.70;;;1.25;;
55417;SDS011;41287;47.554;7.844;2023-04-03T10:14:34;4.75;;;1.20;;
55417;SDS011;41287;47.554;7.844;2023-04-03T10:17:05;5.30;;;1.48;;
55417;SDS011;41287;47.554;7.844;2023-04-03T10:19:48;3.53;;;1.10;;
55417;SDS011;41287;47.554;7.844;2023-04-03T10:22:28;1.65;;;1.00;;
55417;SDS011;41287;47.554;7.844;2023-04-03T10:25:19;4.43;;;1.40;;
55417;SDS011;41287;47.554;7.844;2023-04-03T10:38:16;3.83;;;1.10;;
55417;SDS011;41287;47.554;7.844;2023-04-03T10:41:19;5.25;;;1.52;;
55417;SDS011;41287;47.554;7.844;2023-04-03T10:47:16;2.55;;;1.10;;
55417;SDS011;41287;47.554;7.844;2023-04-03T10:52:31;2.63;;;1.15;;
55417;SDS011;41287;47.554;7.844;2023-04-03T10:57:38;4.00;;;1.03;;
55417;SDS011;41287;47.554;7.844;2023-04-03T11:00:06;2.42;;;1.10;;
55417;SDS011;41287;47.554;7.844;2023-04-03T11:02:51;1.83;;;1.08;;
55417;SDS011;41287;47.554;7.844;2023-04-03T11:05:25;4.53;;;1.33;;
55417;SDS011;41287;47.554;7.844;2023-04-03T11:07:57;6.28;;;1.75;;
55417;SDS011;41287;47.554;7.844;2023-04-03T11:10:36;5.72;;;1.35;;
55417;SDS011;41287;47.554;7.844;2023-04-03T11:16:24;4.47;;;1.42;;
55417;SDS011;41287;47.554;7.844;2023-04-03T11:18:54;4.03;;;1.35;;
55417;SDS011;41287;47.554;7.844;2023-04-03T11:21:26;8.60;;;1.83;;
55417;SDS011;41287;47.554;7.844;2023-04-03T11:23:57;3.83;;;1.50;;
55417;SDS011;41287;47.554;7.844;2023-04-03T11:26:28;5.80;;;1.27;;
55417;SDS011;41287;47.554;7.844;2023-04-03T11:29:07;8.38;;;1.60;;
55417;SDS011;41287;47.554;7.844;2023-04-03T11:34:35;5.40;;;1.30;;
55417;SDS011;41287;47.554;7.844;2023-04-03T11:37:12;7.82;;;1.58;;
55417;SDS011;41287;47.554;7.844;2023-04-03T11:39:47;3.78;;;1.42;;
55417;SDS011;41287;47.554;7.844;2023-04-03T11:42:32;5.93;;;1.65;;
55417;SDS011;41287;47.554;7.844;2023-04-03T11:47:59;5.13;;;1.70;;
55417;SDS011;41287;47.554;7.844;2023-04-03T12:13:35;5.97;;;1.23;;
55417;SDS011;41287;47.554;7.844;2023-04-03T12:16:02;5.60;;;1.58;;
55417;SDS011;41287;47.554;7.844;2023-04-03T12:21:08;4.35;;;1.50;;
55417;SDS011;41287;47.554;7.844;2023-04-03T12:23:35;5.82;;;1.90;;
55417;SDS011;41287;47.554;7.844;2023-04-03T12:26:21;3.03;;;1.27;;
55417;SDS011;41287;47.554;7.844;2023-04-03T12:28:51;5.22;;;1.40;;
55417;SDS011;41287;47.554;7.844;2023-04-03T12:31:18;3.22;;;1.20;;
55417;SDS011;41287;47.554;7.844;2023-04-03T12:36:41;5.43;;;1.58;;
55417;SDS011;41287;47.554;7.844;2023-04-03T12:39:55;3.67;;;1.40;;
55417;SDS011;41287;47.554;7.844;2023-04-03T12:47:24;5.68;;;1.58;;
55417;SDS011;41287;47.554;7.844;2023-04-03T12:49:53;4.95;;;1.23;;
55417;SDS011;41287;47.554;7.844;2023-04-03T12:52:31;6.20;;;1.50;;
55417;SDS011;41287;47.554;7.844;2023-04-03T12:55:03;2.93;;;1.20;;
55417;SDS011;41287;47.554;7.844;2023-04-03T12:57:32;5.53;;;1.40;;
55417;SDS011;41287;47.554;7.844;2023-04-03T13:00:00;2.08;;;1.20;;
55417;SDS011;41287;47.554;7.844;2023-04-03T13:02:43;2.05;;;1.30;;
55417;SDS011;41287;47.554;7.844;2023-04-03T13:05:15;2.50;;;1.30;;
55417;SDS011;41287;47.554;7.844;2023-04-03T13:07:44;4.25;;;1.30;;
55417;SDS011;41287;47.554;7.844;2023-04-03T13:10:16;3.15;;;1.08;;
55417;SDS011;41287;47.554;7.844;2023-04-03T13:15:13;3.92;;;1.20;;
55417;SDS011;41287;47.554;7.844;2023-04-03T13:17:47;2.45;;;1.25;;
55417;SDS011;41287;47.554;7.844;2023-04-03T13:20:36;4.72;;;1.25;;
55417;SDS011;41287;47.554;7.844;2023-04-03T13:23:05;2.80;;;1.42;;
55417;SDS011;41287;47.554;7.844;2023-04-03T13:25:34;3.78;;;1.25;;
55417;SDS011;41287;47.554;7.844;2023-04-03T13:28:05;3.20;;;1.10;;
55417;SDS011;41287;47.554;7.844;2023-04-03T13:30:36;5.55;;;1.75;;
55417;SDS011;41287;47.554;7.844;2023-04-03T13:33:03;2.33;;;1.30;;
55417;SDS011;41287;47.554;7.844;2023-04-03T13:35:33;3.13;;;1.20;;
55417;SDS011;41287;47.554;7.844;2023-04-03T13:38:04;3.55;;;1.20;;
55417;SDS011;41287;47.554;7.844;2023-04-03T13:40:53;3.65;;;1.27;;
55417;SDS011;41287;47.554;7.844;2023-04-03T13:43:23;2.78;;;1.08;;
55417;SDS011;41287;47.554;7.844;2023-04-03T13:46:32;4.30;;;1.20;;
55417;SDS011;41287;47.554;7.844;2023-04-03T13:48:46;3.72;;;1.33;;
55417;SDS011;41287;47.554;7.844;2023-04-03T13:53:44;2.75;;;1.20;;
55417;SDS011;41287;47.554;7.844;2023-04-03T13:56:23;3.22;;;1.13;;
55417;SDS011;41287;47.554;7.844;2023-04-03T13:59:04;1.90;;;1.30;;
55417;SDS011;41287;47.554;7.844;2023-04-03T14:01:36;3.78;;;1.38;;
55417;SDS011;41287;47.554;7.844;2023-04-03T14:04:23;4.13;;;1.17;;
55417;SDS011;41287;47.554;7.844;2023-04-03T14:06:51;2.70;;;1.30;;
55417;SDS011;41287;47.554;7.844;2023-04-03T14:09:19;4.47;;;1.50;;
55417;SDS011;41287;47.554;7.844;2023-04-03T14:11:46;7.28;;;1.63;;
55417;SDS011;41287;47.554;7.844;2023-04-03T14:14:18;7.45;;;1.70;;
55417;SDS011;41287;47.554;7.844;2023-04-03T14:16:47;8.75;;;1.50;;
55417;SDS011;41287;47.554;7.844;2023-04-03T14:19:19;6.22;;;1.92;;
55417;SDS011;41287;47.554;7.844;2023-04-03T14:21:47;7.07;;;1.75;;
55417;SDS011;41287;47.554;7.844;2023-04-03T14:24:13;6.47;;;1.75;;
55417;SDS011;41287;47.554;7.844;2023-04-03T14:26:39;5.38;;;1.35;;
55417;SDS011;41287;47.554;7.844;2023-04-03T14:29:04;5.00;;;1.70;;
55417;SDS011;41287;47.554;7.844;2023-04-03T14:31:29;5.68;;;1.63;;
55417;SDS011;41287;47.554;7.844;2023-04-03T14:33:55;3.58;;;1.23;;
55417;SDS011;41287;47.554;7.844;2023-04-03T14:36:23;5.15;;;1.60;;
55417;SDS011;41287;47.554;7.844;2023-04-03T14:38:52;4.22;;;1.60;;
55417;SDS011;41287;47.554;7.844;2023-04-03T14:41:20;5.38;;;1.55;;
55417;SDS011;41287;47.554;7.844;2023-04-03T14:43:47;6.15;;;1.73;;
55417;SDS011;41287;47.554;7.844;2023-04-03T14:46:14;6.65;;;1.92;;
55417;SDS011;41287;47.554;7.844;2023-04-03T14:48:43;7.47;;;1.77;;
55417;SDS011;41287;47.554;7.844;2023-04-03T14:51:10;6.35;;;1.42;;
55417;SDS011;41287;47.554;7.844;2023-04-03T14:53:37;4.88;;;1.65;;
55417;SDS011;41287;47.554;7.844;2023-04-03T14:56:05;9.48;;;2.20;;
55417;SDS011;41287;47.554;7.844;2023-04-03T14:58:36;6.47;;;1.42;;
55417;SDS011;41287;47.554;7.844;2023-04-03T15:01:02;5.55;;;1.65;;
55417;SDS011;41287;47.554;7.844;2023-04-03T15:03:27;6.60;;;1.75;;
55417;SDS011;41287;47.554;7.844;2023-04-03T15:05:52;3.40;;;1.52;;
55417;SDS011;41287;47.554;7.844;2023-04-03T15:08:22;10.48;;;2.13;;
55417;SDS011;41287;47.554;7.844;2023-04-03T15:10:49;8.75;;;1.70;;
55417;SDS011;41287;47.554;7.844;2023-04-03T15:13:17;5.20;;;1.95;;
55417;SDS011;41287;47.554;7.844;2023-04-03T15:15:44;4.97;;;1.70;;
55417;SDS011;41287;47.554;7.844;2023-04-03T15:18:17;4.85;;;1.92;;
55417;SDS011;41287;47.554;7.844;2023-04-03T15:20:45;5.80;;;1.70;;
55417;SDS011;41287;47.554;7.844;2023-04-03T15:23:12;7.82;;;2.15;;
55417;SDS011;41287;47.554;7.844;2023-04-03T15:25:40;8.05;;;1.60;;
55417;SDS011;41287;47.554;7.844;2023-04-03T15:28:09;6.07;;;1.70;;
55417;SDS011;41287;47.554;7.844;2023-04-03T15:30:44;5.45;;;1.70;;
55417;SDS011;41287;47.554;7.844;2023-04-03T15:33:09;4.07;;;1.67;;
55417;SDS011;41287;47.554;7.844;2023-04-03T15:35:35;2.80;;;1.48;;
55417;SDS011;41287;47.554;7.844;2023-04-03T15:38:00;3.58;;;1.30;;
55417;SDS011;41287;47.554;7.844;2023-04-03T15:40:26;6.03;;;1.40;;
55417;SDS011;41287;47.554;7.844;2023-04-03T15:42:51;3.47;;;1.70;;
55417;SDS011;41287;47.554;7.844;2023-04-03T15:45:16;9.02;;;1.73;;
55417;SDS011;41287;47.554;7.844;2023-04-03T15:47:42;7.32;;;1.67;;
55417;SDS011;41287;47.554;7.844;2023-04-03T15:50:08;4.25;;;1.48;;
55417;SDS011;41287;47.554;7.844;2023-04-03T15:52:34;4.13;;;1.60;;
55417;SDS011;41287;47.554;7.844;2023-04-03T15:54:59;5.30;;;1.50;;
55417;SDS011;41287;47.554;7.844;2023-04-03T15:57:25;4.13;;;1.70;;
55417;SDS011;41287;47.554;7.844;2023-04-03T15:59:51;6.22;;;1.98;;
55417;SDS011;41287;47.554;7.844;2023-04-03T16:02:17;6.35;;;1.75;;
55417;SDS011;41287;47.554;7.844;2023-04-03T16:04:42;6.50;;;1.80;;
55417;SDS011;41287;47.554;7.844;2023-04-03T16:07:08;3.28;;;1.50;;
55417;SDS011;41287;47.554;7.844;2023-04-03T16:09:33;6.88;;;1.98;;
55417;SDS011;41287;47.554;7.844;2023-04-03T16:12:00;6.25;;;1.63;;
55417;SDS011;41287;47.554;7.844;2023-04-03T16:14:26;7.20;;;1.60;;
55417;SDS011;41287;47.554;7.844;2023-04-03T16:16:53;7.53;;;1.90;;
55417;SDS011;41287;47.554;7.844;2023-04-03T16:19:18;6.50;;;1.48;;
55417;SDS011;41287;47.554;7.844;2023-04-03T16:21:44;9.07;;;2.10;;
55417;SDS011;41287;47.554;7.844;2023-04-03T16:24:13;3.22;;;1.25;;
55417;SDS011;41287;47.554;7.844;2023-04-03T16:26:38;6.90;;;1.55;;
55417;SDS011;41287;47.554;7.844;2023-04-03T16:29:04;10.50;;;1.70;;
55417;SDS011;41287;47.554;7.844;2023-04-03T16:31:29;4.13;;;1.65;;
55417;SDS011;41287;47.554;7.844;2023-04-03T16:33:57;9.32;;;1.85;;
55417;SDS011;41287;47.554;7.844;2023-04-03T16:36:23;8.48;;;1.75;;
55417;SDS011;41287;47.554;7.844;2023-04-03T16:38:50;7.45;;;1.77;;
55417;SDS011;41287;47.554;7.844;2023-04-03T16:41:15;9.57;;;1.90;;
55417;SDS011;41287;47.554;7.844;2023-04-03T16:43:40;5.43;;;1.77;;